Time;durP1;ratioP1;P1;durP2;ratioP2;P2;SDS_P1;SDS_P2;PMS_P1;PMS_P2;Temp;Humidity;BMP_temperature;BMP_pressure;BME280_temperature;BME280_humidity;BME280_pressure;Samples;Min_cycle;Max_cycle;Signal;HPM_P1;HPM_P2
2023/04/29 00:02:16;;;;;;;83.72;27.77;;;;;;;9.21;100.00;101552.25;5055314;28;20194;-44
2023/04/29 00:04:41;;;;;;;98.70;31.10;;;;;;;9.18;100.00;101552.56;5057659;28;20542;-44
2023/04/29 00:07:07;;;;;;;81.05;28.50;;;;;;;9.12;100.00;101553.19;5063424;28;20493;-48
2023/04/29 00:09:33;;;;;;;90.45;28.50;;;;;;;9.13;100.00;101560.25;5062640;28;20017;-44
2023/04/29 00:11:59;;;;;;;88.53;30.33;;;;;;;9.16;100.00;101549.19;5060507;28;20119;-45
2023/04/29 00:14:24;;;;;;;91.25;29.65;;;;;;;9.11;100.00;101551.50;5053265;28;20609;-45
2023/04/29 00:16:50;;;;;;;86.18;30.90;;;;;;;9.06;100.00;101559.16;5054893;28;20049;-47
2023/04/29 00:19:17;;;;;;;85.28;30.40;;;;;;;9.12;100.00;101563.94;5062092;28;20029;-47
2023/04/29 00:21:42;;;;;;;80.32;33.17;;;;;;;9.15;100.00;101569.00;5051193;28;20377;-46
2023/04/29 00:24:07;;;;;;;89.18;32.45;;;;;;;9.09;100.00;101572.31;5064820;28;20669;-44
2023/04/29 00:26:34;;;;;;;88.97;31.27;;;;;;;9.06;100.00;101560.03;5071287;28;20032;-45
2023/04/29 00:28:59;;;;;;;84.78;31.63;;;;;;;9.01;100.00;101568.53;5063036;28;20037;-48
2023/04/29 00:31:25;;;;;;;81.20;32.47;;;;;;;9.10;100.00;101576.66;5065921;28;20089;-47
2023/04/29 00:33:51;;;;;;;69.70;30.48;;;;;;;9.11;100.00;101583.72;5052867;28;20375;-45
2023/04/29 00:36:18;;;;;;;84.85;30.63;;;;;;;9.11;100.00;101578.34;5052501;28;20028;-46
2023/04/29 00:38:43;;;;;;;67.80;29.65;;;;;;;9.09;100.00;101580.38;5055412;28;20033;-45
2023/04/29 00:41:09;;;;;;;90.28;31.05;;;;;;;9.02;100.00;101572.06;5070869;28;20535;-44
2023/04/29 00:43:34;;;;;;;69.65;28.40;;;;;;;9.01;100.00;101578.44;5060738;28;20029;-45
2023/04/29 00:45:59;;;;;;;74.30;28.42;;;;;;;8.95;100.00;101585.28;5036757;28;20024;-49
2023/04/29 00:48:25;;;;;;;81.35;28.70;;;;;;;8.86;100.00;101580.81;5068276;28;20098;-49
2023/04/29 00:50:51;;;;;;;94.80;30.77;;;;;;;8.91;100.00;101577.66;5033886;28;20040;-47
2023/04/29 00:53:17;;;;;;;87.85;31.67;;;;;;;8.87;100.00;101587.84;5052787;28;20131;-43
2023/04/29 00:55:43;;;;;;;85.10;31.08;;;;;;;8.93;100.00;101592.63;5055786;28;20717;-46
2023/04/29 00:58:10;;;;;;;83.22;27.92;;;;;;;8.91;100.00;101588.41;5062357;28;20059;-47
2023/04/29 01:00:36;;;;;;;77.60;30.17;;;;;;;8.78;100.00;101589.63;5051560;28;20045;-48
2023/04/29 01:03:05;;;;;;;76.45;28.92;;;;;;;8.78;100.00;101594.16;5065520;28;20042;-45
2023/04/29 01:05:30;;;;;;;;;;;;;;;8.71;100.00;101593.06;5055776;28;20155;-46
2023/04/29 01:08:05;;;;;;;75.80;30.65;;;;;;;8.69;100.00;101595.03;5050770;28;19978;-47
2023/04/29 01:10:35;;;;;;;83.70;30.63;;;;;;;8.69;100.00;101597.72;5056181;28;20056;-46
2023/04/29 01:13:12;;;;;;;76.55;30.77;;;;;;;8.68;100.00;101599.56;5070498;28;20052;-50
2023/04/29 01:16:00;;;;;;;76.72;30.30;;;;;;;8.75;100.00;101606.03;5061654;28;20032;-44
2023/04/29 01:18:26;;;;;;;;;;;;;;;8.74;100.00;101607.03;5059288;28;20028;-47
2023/04/29 01:20:52;;;;;;;82.25;29.83;;;;;;;8.75;100.00;101605.19;5072247;28;19974;-51
2023/04/29 01:23:17;;;;;;;75.70;28.90;;;;;;;8.73;100.00;101601.81;5071987;28;20056;-46
2023/04/29 01:25:44;;;;;;;77.15;29.90;;;;;;;8.76;100.00;101606.88;5072285;28;20086;-45
2023/04/29 01:28:44;;;;;;;86.07;31.33;;;;;;;8.76;100.00;101601.50;5068098;28;20111;-49
2023/04/29 01:31:35;;;;;;;86.00;30.75;;;;;;;8.82;100.00;101610.78;5072223;28;20040;-46
2023/04/29 01:34:09;;;;;;;66.80;29.50;;;;;;;8.83;100.00;101607.97;5071212;28;20025;-50
2023/04/29 01:36:57;;;;;;;83.53;30.42;;;;;;;8.86;100.00;101602.28;5051854;28;20033;-45
2023/04/29 01:39:40;;;;;;;75.60;29.95;;;;;;;8.82;100.00;101602.72;5056037;28;20129;-46
2023/04/29 01:42:44;;;;;;;76.05;29.90;;;;;;;8.85;100.00;101597.91;5068882;28;20638;-46
2023/04/29 01:45:11;;;;;;;81.50;29.20;;;;;;;8.87;100.00;101603.97;5050942;28;20348;-45
2023/04/29 01:47:38;;;;;;;76.88;29.23;;;;;;;8.89;100.00;101604.66;5058375;28;20036;-46
2023/04/29 01:50:03;;;;;;;81.07;28.45;;;;;;;8.93;100.00;101608.75;5049980;28;20407;-47
2023/04/29 01:52:29;;;;;;;77.63;29.27;;;;;;;8.91;100.00;101616.09;5066995;28;20051;-49
2023/04/29 01:54:56;;;;;;;79.85;29.42;;;;;;;8.95;100.00;101614.81;5066158;28;20033;-45
2023/04/29 01:57:21;;;;;;;81.45;27.38;;;;;;;9.00;100.00;101607.13;5066385;28;20032;-47
2023/04/29 01:59:47;;;;;;;74.28;27.77;;;;;;;8.98;100.00;101609.13;5064324;28;20028;-46
2023/04/29 02:02:14;;;;;;;82.25;29.40;;;;;;;8.94;100.00;101610.41;5063092;28;20136;-44
2023/04/29 02:04:39;;;;;;;74.90;28.67;;;;;;;8.98;100.00;101616.34;5053830;28;20033;-47
2023/04/29 02:07:05;;;;;;;70.40;28.25;;;;;;;9.01;100.00;101618.72;5051513;28;20035;-47
2023/04/29 02:09:30;;;;;;;65.88;25.75;;;;;;;9.05;100.00;101611.19;5050763;28;20043;-45
2023/04/29 02:11:55;;;;;;;75.60;28.15;;;;;;;9.08;100.00;101613.56;5068201;28;20021;-44
2023/04/29 02:14:21;;;;;;;68.85;27.42;;;;;;;9.04;100.00;101622.94;5068179;28;20063;-46
2023/04/29 02:16:46;;;;;;;74.80;27.42;;;;;;;9.07;100.00;101623.47;5059650;28;20458;-46
2023/04/29 02:19:12;;;;;;;62.58;27.48;;;;;;;9.13;100.00;101624.69;5059516;28;20082;-46
2023/04/29 02:21:39;;;;;;;66.95;25.80;;;;;;;9.13;100.00;101630.91;5050196;28;20033;-46
2023/04/29 02:24:05;;;;;;;61.20;26.85;;;;;;;9.12;100.00;101637.28;5053904;28;20075;-49
2023/04/29 02:26:31;;;;;;;68.22;26.85;;;;;;;9.12;100.00;101631.91;5051155;28;20403;-47
2023/04/29 02:28:56;;;;;;;64.22;27.98;;;;;;;9.17;100.00;101636.81;5061866;28;20049;-46
2023/04/29 02:31:22;;;;;;;70.75;27.98;;;;;;;9.18;100.00;101644.72;5051951;28;20352;-44
2023/04/29 02:33:48;;;;;;;72.47;25.60;;;;;;;9.17;100.00;101647.56;5049828;28;20056;-49
2023/04/29 02:36:13;;;;;;;59.35;24.67;;;;;;;9.15;100.00;101639.66;5066280;28;20043;-48
2023/04/29 02:38:38;;;;;;;66.72;27.63;;;;;;;9.09;100.00;101647.50;5037349;28;20123;-46
2023/04/29 02:41:04;;;;;;;63.50;24.30;;;;;;;9.15;100.00;101646.88;5065102;28;20071;-51
2023/04/29 02:43:30;;;;;;;63.55;24.20;;;;;;;9.19;100.00;101648.28;5071036;28;20025;-47
2023/04/29 02:45:56;;;;;;;74.53;25.33;;;;;;;9.10;100.00;101649.16;5053168;28;20057;-46
2023/04/29 02:48:21;;;;;;;54.90;22.10;;;;;;;9.08;100.00;101648.47;5057896;28;20083;-47
2023/04/29 02:50:46;;;;;;;53.55;22.80;;;;;;;9.13;100.00;101656.91;5054330;28;21005;-48
2023/04/29 02:53:12;;;;;;;62.70;24.58;;;;;;;9.15;100.00;101655.78;5053623;28;20041;-45
2023/04/29 02:55:37;;;;;;;60.20;22.70;;;;;;;9.12;100.00;101650.72;5061467;28;20025;-46
2023/04/29 02:58:03;;;;;;;59.28;23.33;;;;;;;9.16;100.00;101656.59;5073328;28;20028;-47
2023/04/29 03:00:28;;;;;;;60.42;24.38;;;;;;;9.13;100.00;101662.28;5062742;28;20452;-47
2023/04/29 03:02:53;;;;;;;68.72;23.67;;;;;;;9.15;100.00;101671.88;5053351;28;20017;-48
2023/04/29 03:05:19;;;;;;;54.80;22.77;;;;;;;9.19;100.00;101664.38;5054448;28;20031;-45
2023/04/29 03:07:44;;;;;;;51.20;23.25;;;;;;;9.19;100.00;101659.84;5069553;28;20028;-46
2023/04/29 03:10:11;;;;;;;63.30;23.73;;;;;;;9.21;100.00;101665.88;5067683;28;20036;-46
2023/04/29 03:12:36;;;;;;;55.10;23.50;;;;;;;9.25;100.00;101666.44;5053049;28;20372;-45
2023/04/29 03:15:02;;;;;;;62.38;24.05;;;;;;;9.26;100.00;101668.13;5054073;28;20025;-48
2023/04/29 03:17:27;;;;;;;54.85;22.58;;;;;;;9.29;100.00;101675.88;5056222;28;20033;-46
2023/04/29 03:19:53;;;;;;;61.60;23.42;;;;;;;9.24;100.00;101667.44;5054120;28;20035;-47
2023/04/29 03:22:18;;;;;;;67.32;24.08;;;;;;;9.24;100.00;101662.06;5072549;28;20033;-45
2023/04/29 03:24:44;;;;;;;58.90;23.27;;;;;;;9.21;100.00;101673.09;5070608;28;20032;-46
2023/04/29 03:27:10;;;;;;;62.53;23.02;;;;;;;9.22;100.00;101669.44;5072445;28;20037;-48
2023/04/29 03:29:35;;;;;;;61.55;21.90;;;;;;;9.25;100.00;101679.88;5062251;28;20033;-48
2023/04/29 03:32:01;;;;;;;66.38;23.95;;;;;;;9.20;100.00;101674.97;5059970;28;20166;-49
2023/04/29 03:34:27;;;;;;;52.70;21.98;;;;;;;9.23;100.00;101679.19;5052474;28;20180;-46
2023/04/29 03:36:53;;;;;;;63.72;22.85;;;;;;;9.28;100.00;101673.34;5063536;28;20460;-47
2023/04/29 03:39:18;;;;;;;62.22;22.63;;;;;;;9.24;100.00;101670.13;5069271;28;20036;-45
2023/04/29 03:41:44;;;;;;;55.42;20.90;;;;;;;9.28;100.00;101681.41;5064049;28;20365;-46
2023/04/29 03:44:09;;;;;;;58.40;22.95;;;;;;;9.29;100.00;101681.25;5071282;28;20032;-46
2023/04/29 03:46:34;;;;;;;61.47;21.83;;;;;;;9.28;100.00;101682.25;5069989;28;20017;-48
2023/04/29 03:49:00;;;;;;;66.72;21.80;;;;;;;9.32;100.00;101688.16;5059671;28;20071;-46
2023/04/29 03:51:26;;;;;;;63.78;22.83;;;;;;;9.30;100.00;101682.94;5053055;28;20044;-47
2023/04/29 03:53:53;;;;;;;55.60;22.20;;;;;;;9.30;100.00;101693.69;5051069;28;20052;-47
2023/04/29 03:56:18;;;;;;;54.25;20.15;;;;;;;9.28;100.00;101689.47;5052715;28;20028;-46
2023/04/29 03:58:45;;;;;;;67.28;23.15;;;;;;;9.25;100.00;101690.63;5051041;28;20029;-46
2023/04/29 04:01:11;;;;;;;67.65;23.70;;;;;;;9.25;100.00;101693.31;5051528;28;20534;-45
2023/04/29 04:03:37;;;;;;;61.83;21.98;;;;;;;9.27;100.00;101694.00;5051668;28;20033;-47
2023/04/29 04:06:03;;;;;;;53.15;23.23;;;;;;;9.32;100.00;101694.41;5053536;28;20516;-46
2023/04/29 04:08:28;;;;;;;55.40;21.67;;;;;;;9.31;100.00;101690.00;5051877;28;20044;-45
2023/04/29 04:10:53;;;;;;;57.30;22.00;;;;;;;9.31;100.00;101687.31;5061982;28;20485;-46
2023/04/29 04:13:19;;;;;;;50.60;20.77;;;;;;;9.32;100.00;101697.09;5052036;28;20518;-47
2023/04/29 04:15:51;;;;;;;51.22;21.38;;;;;;;9.37;100.00;101700.16;5052227;28;20680;-45
2023/04/29 04:18:16;;;;;;;57.08;21.67;;;;;;;9.33;100.00;101697.91;5057251;28;20371;-46
2023/04/29 04:20:42;;;;;;;62.00;24.33;;;;;;;9.34;100.00;101707.66;5062187;28;20020;-46
2023/04/29 04:23:07;;;;;;;66.97;22.63;;;;;;;9.35;100.00;101715.56;5051428;28;20178;-48
2023/04/29 04:25:33;;;;;;;59.38;20.08;;;;;;;9.35;100.00;101720.94;5065029;28;20032;-44
2023/04/29 04:27:58;;;;;;;68.30;23.35;;;;;;;9.43;100.00;101725.56;5059532;28;20098;-47
2023/04/29 04:30:23;;;;;;;56.20;21.63;;;;;;;9.38;100.00;101722.50;5061458;28;20508;-50
2023/04/29 04:32:49;;;;;;;66.22;22.55;;;;;;;9.37;100.00;101718.97;5049557;28;20060;-45
2023/04/29 04:35:16;;;;;;;64.40;23.23;;;;;;;9.32;100.00;101725.75;5059336;28;20071;-47
2023/04/29 04:37:41;;;;;;;66.50;23.88;;;;;;;9.32;100.00;101737.38;5067556;28;20478;-47
2023/04/29 04:40:08;;;;;;;78.55;24.38;;;;;;;9.31;100.00;101738.34;5050358;28;20123;-49
2023/04/29 04:42:33;;;;;;;77.93;23.75;;;;;;;9.31;100.00;101745.56;5067093;28;20040;-46
2023/04/29 04:44:58;;;;;;;77.00;23.98;;;;;;;9.30;100.00;101750.09;5067709;28;20045;-49
2023/04/29 04:47:25;;;;;;;73.13;23.42;;;;;;;9.33;100.00;101752.50;5067466;28;20082;-46
2023/04/29 04:49:51;;;;;;;75.70;23.67;;;;;;;9.40;100.00;101761.66;5050177;28;20532;-48
2023/04/29 04:52:20;;;;;;;71.55;24.15;;;;;;;9.43;100.00;101761.34;5068624;28;20090;-45
2023/04/29 04:54:45;;;;;;;66.28;22.77;;;;;;;9.41;100.00;101765.16;5068146;28;20039;-50
2023/04/29 04:57:11;;;;;;;74.53;24.58;;;;;;;9.43;100.00;101780.13;5065205;28;20390;-48
2023/04/29 04:59:36;;;;;;;75.35;23.65;;;;;;;9.39;100.00;101783.28;5066493;28;20029;-46
2023/04/29 05:02:01;;;;;;;74.68;24.33;;;;;;;9.40;100.00;101785.81;5067354;28;20040;-46
2023/04/29 05:04:27;;;;;;;80.60;25.27;;;;;;;9.50;100.00;101787.59;5066492;28;20128;-45
2023/04/29 05:06:52;;;;;;;73.75;25.00;;;;;;;9.52;100.00;101799.88;5065055;28;20043;-45
2023/04/29 05:09:18;;;;;;;76.05;25.13;;;;;;;9.47;100.00;101801.31;5068773;28;20486;-48
2023/04/29 05:11:43;;;;;;;82.65;26.85;;;;;;;9.56;100.00;101801.28;5065195;28;20802;-45
2023/04/29 05:14:09;;;;;;;82.35;25.27;;;;;;;9.58;100.00;101804.63;5069362;28;20135;-50
2023/04/29 05:16:34;;;;;;;77.95;26.48;;;;;;;9.55;100.00;101801.41;5033348;28;20044;-46
2023/04/29 05:18:59;;;;;;;94.03;27.45;;;;;;;9.55;100.00;101802.25;5069063;28;20540;-45
2023/04/29 05:21:25;;;;;;;76.90;26.83;;;;;;;9.55;100.00;101798.72;5070436;28;20427;-45
2023/04/29 05:23:50;;;;;;;80.82;27.08;;;;;;;9.55;100.00;101806.78;5050678;28;20064;-47
2023/04/29 05:26:15;;;;;;;81.50;27.08;;;;;;;9.58;100.00;101803.78;5070898;28;20024;-47
2023/04/29 05:28:41;;;;;;;90.00;28.40;;;;;;;9.56;100.00;101816.56;5063224;28;20021;-46
2023/04/29 05:31:06;;;;;;;100.88;30.13;;;;;;;9.55;100.00;101817.53;5050601;28;20052;-49
2023/04/29 05:33:31;;;;;;;90.93;30.58;;;;;;;9.55;100.00;101818.38;5058544;28;20044;-48
2023/04/29 05:35:57;;;;;;;99.93;32.15;;;;;;;9.55;100.00;101814.84;5054646;28;20132;-46
2023/04/29 05:38:27;;;;;;;87.72;30.88;;;;;;;9.55;100.00;101820.22;5050027;28;20082;-46
2023/04/29 05:40:54;;;;;;;98.15;33.22;;;;;;;9.58;100.00;101822.59;5058917;28;20528;-47
2023/04/29 05:43:19;;;;;;;101.32;32.55;;;;;;;9.60;100.00;101821.47;5064219;28;20064;-45
2023/04/29 05:45:48;;;;;;;96.90;33.17;;;;;;;9.61;100.00;101824.97;5066395;28;20417;-46
2023/04/29 05:48:13;;;;;;;102.28;33.35;;;;;;;9.64;100.00;101833.63;5047801;28;20032;-48
2023/04/29 05:50:40;;;;;;;113.38;33.05;;;;;;;9.67;100.00;101833.31;5056925;28;20036;-48
2023/04/29 05:53:06;;;;;;;109.07;32.88;;;;;;;9.71;100.00;101839.22;5049901;28;20045;-46
2023/04/29 05:55:31;;;;;;;105.03;35.53;;;;;;;9.68;100.00;101845.72;5055510;28;20020;-45
2023/04/29 05:57:56;;;;;;;105.50;34.25;;;;;;;9.72;100.00;101854.34;5054788;28;20068;-47
2023/04/29 06:00:22;;;;;;;118.25;31.92;;;;;;;9.83;100.00;101858.66;5054357;28;20097;-46
2023/04/29 06:02:47;;;;;;;104.03;33.42;;;;;;;9.76;100.00;101863.78;5052701;28;20099;-48
2023/04/29 06:05:14;;;;;;;95.72;33.55;;;;;;;9.78;100.00;101871.72;5048457;28;20060;-45
2023/04/29 06:07:40;;;;;;;99.65;33.63;;;;;;;9.83;100.00;101874.81;5053947;28;20497;-46
2023/04/29 06:10:06;;;;;;;106.88;32.55;;;;;;;9.88;100.00;101873.34;5048351;28;20036;-46
2023/04/29 06:12:31;;;;;;;96.32;31.77;;;;;;;9.95;100.00;101878.09;5047190;28;20501;-45
2023/04/29 06:14:57;;;;;;;84.13;28.17;;;;;;;10.03;100.00;101875.50;5053695;28;20032;-45
2023/04/29 06:17:22;;;;;;;76.50;27.83;;;;;;;10.15;100.00;101879.66;5068705;28;20496;-45
2023/04/29 06:19:48;;;;;;;77.43;27.05;;;;;;;10.21;100.00;101876.34;5066976;28;20046;-44
2023/04/29 06:22:13;;;;;;;78.32;26.63;;;;;;;10.28;100.00;101877.47;5051238;28;20554;-43
2023/04/29 06:24:38;;;;;;;71.45;27.90;;;;;;;10.36;100.00;101873.16;5049012;28;20025;-47
2023/04/29 06:27:04;;;;;;;84.07;26.02;;;;;;;10.41;100.00;101879.75;5058544;28;20112;-47
2023/04/29 06:29:29;;;;;;;82.72;26.02;;;;;;;10.61;100.00;101876.88;5050539;28;20506;-46
2023/04/29 06:31:56;;;;;;;73.03;24.70;;;;;;;10.73;100.00;101875.63;5067243;28;20032;-43
2023/04/29 06:34:22;;;;;;;67.30;24.67;;;;;;;11.05;100.00;101874.97;5068374;28;20036;-46
2023/04/29 06:36:47;;;;;;;70.18;24.08;;;;;;;11.21;100.00;101875.06;5064031;28;20025;-45
2023/04/29 06:39:12;;;;;;;64.85;22.90;;;;;;;11.38;100.00;101872.47;5065112;28;20522;-45
2023/04/29 06:41:39;;;;;;;67.25;21.63;;;;;;;11.42;100.00;101882.72;5055395;28;20051;-44
2023/04/29 06:44:05;;;;;;;67.28;20.92;;;;;;;11.50;100.00;101887.31;5049224;28;20037;-45
2023/04/29 06:46:30;;;;;;;59.65;20.70;;;;;;;11.61;100.00;101883.47;5062515;28;20047;-46
2023/04/29 06:48:56;;;;;;;60.17;19.52;;;;;;;11.80;100.00;101898.56;5056014;28;20036;-46
2023/04/29 06:51:21;;;;;;;59.13;19.45;;;;;;;12.18;100.00;101885.50;5056787;28;20686;-47
2023/04/29 06:53:47;;;;;;;59.55;19.13;;;;;;;12.61;100.00;101897.00;5055508;28;20045;-46
2023/04/29 06:56:12;;;;;;;50.33;16.98;;;;;;;13.53;100.00;101889.38;5056841;28;20025;-45
2023/04/29 06:58:38;;;;;;;33.03;14.25;;;;;;;14.41;100.00;101893.59;5052332;28;20414;-47
2023/04/29 07:01:04;;;;;;;39.95;14.98;;;;;;;15.15;100.00;101889.16;5054940;28;20040;-49
2023/04/29 07:03:31;;;;;;;49.67;15.43;;;;;;;15.63;100.00;101898.78;5049010;28;20037;-47
2023/04/29 07:05:57;;;;;;;36.97;14.43;;;;;;;15.77;100.00;101904.22;5061694;28;20025;-46
2023/04/29 07:08:22;;;;;;;39.22;14.70;;;;;;;16.16;100.00;101899.41;5054098;28;20035;-48
2023/04/29 07:10:55;;;;;;;35.33;13.77;;;;;;;17.18;100.00;101911.78;5052535;28;20071;-47
2023/04/29 07:13:20;;;;;;;34.42;14.18;;;;;;;17.08;100.00;101910.25;5048147;28;20033;-46
2023/04/29 07:15:47;;;;;;;28.05;13.60;;;;;;;17.36;100.00;101911.28;5049543;28;20037;-48
2023/04/29 07:18:12;;;;;;;31.75;13.60;;;;;;;17.03;96.55;101918.16;5069070;28;20036;-48
2023/04/29 07:20:38;;;;;;;35.30;13.32;;;;;;;16.44;99.45;101916.63;5069003;28;20025;-45
2023/04/29 07:23:03;;;;;;;35.00;13.63;;;;;;;16.70;100.00;101917.91;5068995;28;20037;-46
2023/04/29 07:25:29;;;;;;;30.27;14.63;;;;;;;17.38;99.76;101922.78;5069167;28;20327;-45
2023/04/29 07:27:55;;;;;;;35.30;13.32;;;;;;;17.34;95.93;101922.34;5068635;28;20126;-47
2023/04/29 07:30:22;;;;;;;37.25;12.65;;;;;;;17.20;97.10;101926.03;5047383;28;20039;-49
2023/04/29 07:32:47;;;;;;;35.53;12.13;;;;;;;16.64;99.83;101926.81;5062017;28;20045;-47
2023/04/29 07:35:13;;;;;;;27.70;12.48;;;;;;;16.05;100.00;101933.34;5065877;28;20046;-47
2023/04/29 07:37:38;;;;;;;38.38;14.57;;;;;;;15.97;100.00;101926.16;5059080;28;20100;-48
2023/04/29 07:40:04;;;;;;;36.92;12.45;;;;;;;15.76;100.00;101931.53;5051309;28;20041;-49
2023/04/29 07:42:30;;;;;;;34.90;12.13;;;;;;;16.31;100.00;101932.78;5052771;28;20037;-45
2023/04/29 07:44:55;;;;;;;28.50;11.55;;;;;;;16.69;100.00;101935.22;5052666;28;20523;-47
2023/04/29 07:47:22;;;;;;;33.92;12.43;;;;;;;16.36;99.35;101937.66;5051467;28;20096;-47
2023/04/29 07:49:47;;;;;;;38.90;12.98;;;;;;;16.24;100.00;101935.44;5056297;28;20261;-46
2023/04/29 07:52:12;;;;;;;30.92;12.50;;;;;;;16.21;100.00;101943.13;5065740;28;20431;-45
2023/04/29 07:54:38;;;;;;;31.48;11.98;;;;;;;16.15;100.00;101946.63;5061334;28;20064;-46
2023/04/29 07:57:03;;;;;;;29.67;11.48;;;;;;;15.81;100.00;101942.66;5071987;28;20137;-47
2023/04/29 07:59:30;;;;;;;34.00;12.70;;;;;;;15.42;100.00;101945.66;5065899;28;20024;-46
2023/04/29 08:01:56;;;;;;;31.75;11.95;;;;;;;15.53;100.00;101943.34;5070241;28;20020;-44
2023/04/29 08:04:23;;;;;;;34.90;12.18;;;;;;;16.31;100.00;101938.22;5053349;28;20078;-47
2023/04/29 08:06:48;;;;;;;36.63;11.93;;;;;;;17.03;96.01;101941.81;5051668;28;20049;-49
2023/04/29 08:09:14;;;;;;;31.65;11.32;;;;;;;17.60;95.17;101942.59;5052319;28;20048;-45
2023/04/29 08:11:40;;;;;;;31.83;12.73;;;;;;;17.63;95.38;101945.75;5053215;28;20091;-45
2023/04/29 08:14:05;;;;;;;29.45;10.85;;;;;;;17.82;92.87;101938.72;5070645;28;20114;-47
2023/04/29 08:16:31;;;;;;;38.97;10.88;;;;;;;18.12;92.06;101942.00;5070471;28;20032;-45
2023/04/29 08:18:56;;;;;;;25.08;9.10;;;;;;;19.98;86.18;101946.47;5052193;28;20025;-44
2023/04/29 08:21:22;;;;;;;24.23;9.20;;;;;;;21.15;79.90;101949.66;5051756;28;20048;-49
2023/04/29 08:23:47;;;;;;;23.85;9.27;;;;;;;21.64;75.29;101950.66;5061483;28;20046;-48
2023/04/29 08:26:13;;;;;;;30.40;9.20;;;;;;;21.46;75.09;101951.50;5064818;28;20031;-49
2023/04/29 08:28:38;;;;;;;21.17;8.02;;;;;;;21.65;70.83;101957.81;5065924;28;20469;-47
2023/04/29 08:31:06;;;;;;;20.05;7.78;;;;;;;20.99;71.87;101958.47;5051039;28;20425;-45
2023/04/29 08:33:34;;;;;;;21.33;8.95;;;;;;;20.58;72.49;101957.09;5051474;28;20071;-45
2023/04/29 08:36:02;;;;;;;25.00;8.20;;;;;;;21.49;70.06;101963.91;5049677;28;20102;-45
2023/04/29 08:38:28;;;;;;;18.80;8.45;;;;;;;21.44;72.61;101961.81;5050484;28;20049;-45
2023/04/29 08:40:53;;;;;;;21.58;8.10;;;;;;;20.98;67.91;101962.25;5049679;28;20115;-45
2023/04/29 08:43:20;;;;;;;16.13;8.32;;;;;;;21.20;68.98;101966.25;5050897;28;20427;-45
2023/04/29 08:45:47;;;;;;;22.20;8.57;;;;;;;22.01;69.31;101967.06;5055318;28;20031;-48
2023/04/29 08:48:14;;;;;;;22.50;8.85;;;;;;;22.20;65.49;101964.31;5059246;28;20047;-47
2023/04/29 08:50:40;;;;;;;18.25;8.68;;;;;;;22.49;63.49;101968.94;5070031;28;20037;-46
2023/04/29 08:53:06;;;;;;;15.65;7.65;;;;;;;22.75;63.04;101962.22;5065354;28;20048;-45
2023/04/29 08:55:37;;;;;;;18.95;8.45;;;;;;;23.23;60.47;101974.91;5069158;28;20032;-46
2023/04/29 08:58:03;;;;;;;18.80;8.15;;;;;;;24.13;59.16;101977.41;5058402;28;20049;-46
2023/04/29 09:00:31;;;;;;;17.73;8.35;;;;;;;23.86;60.24;101973.31;5054698;28;20100;-48
2023/04/29 09:02:58;;;;;;;14.73;7.47;;;;;;;24.47;53.65;101981.09;5059092;28;20056;-46
2023/04/29 09:05:25;;;;;;;16.92;8.27;;;;;;;23.81;55.83;101975.94;5052091;28;20088;-48
2023/04/29 09:07:51;;;;;;;;;;;;;;;23.06;59.46;101979.44;5048726;28;20068;-47
2023/04/29 09:10:17;;;;;;;17.33;8.05;;;;;;;22.71;61.69;101971.97;5045583;28;20010;-44
2023/04/29 09:12:43;;;;;;;20.90;8.80;;;;;;;22.88;59.96;101976.75;5069190;28;20058;-44
2023/04/29 09:15:08;;;;;;;19.80;7.88;;;;;;;23.62;58.41;101977.16;5063575;28;20086;-47
2023/04/29 09:17:45;;;;;;;15.10;6.97;;;;;;;24.56;54.17;101982.34;5047569;28;20327;-49
2023/04/29 09:20:22;;;;;;;12.90;6.90;;;;;;;24.01;52.24;101981.03;5048065;28;20383;-48
2023/04/29 09:22:48;;;;;;;20.08;8.20;;;;;;;23.55;54.62;101980.03;5049511;28;20299;-46
2023/04/29 09:25:14;;;;;;;13.27;7.20;;;;;;;24.01;53.82;101983.78;5060812;28;20037;-46
2023/04/29 09:27:40;;;;;;;17.48;7.65;;;;;;;23.53;56.15;101990.41;5048277;28;20039;-47
2023/04/29 09:30:06;;;;;;;19.15;6.90;;;;;;;23.30;56.86;101991.28;5048693;28;20032;-42
2023/04/29 09:32:31;;;;;;;15.73;6.38;;;;;;;24.38;53.25;101990.78;5050445;28;20140;-46
2023/04/29 09:34:56;;;;;;;14.05;6.55;;;;;;;24.49;51.37;101990.78;5054333;28;20063;-47
2023/04/29 09:37:24;;;;;;;15.63;6.72;;;;;;;24.56;49.81;102004.38;5047512;28;20037;-45
2023/04/29 09:39:49;;;;;;;18.15;6.95;;;;;;;23.33;52.71;101989.94;5049692;28;20039;-44
2023/04/29 09:42:15;;;;;;;18.15;7.25;;;;;;;22.75;56.91;101984.16;5049491;28;20037;-47
2023/04/29 09:44:41;;;;;;;13.27;5.97;;;;;;;22.41;56.15;101996.72;5049734;28;20037;-44
2023/04/29 09:47:08;;;;;;;13.73;6.03;;;;;;;23.12;57.76;102002.38;5048040;28;20043;-47
2023/04/29 09:49:39;;;;;;;9.10;4.95;;;;;;;24.32;51.71;102000.88;5048172;28;20075;-47
2023/04/29 09:52:09;;;;;;;15.00;5.20;;;;;;;24.57;49.91;102005.22;5049359;28;20437;-46
2023/04/29 09:54:37;;;;;;;15.40;6.18;;;;;;;23.86;51.63;102000.81;5049531;28;20119;-48
2023/04/29 09:57:06;;;;;;;14.70;6.28;;;;;;;22.79;51.43;102001.81;5050660;28;20028;-46
2023/04/29 09:59:36;;;;;;;13.68;5.80;;;;;;;22.94;51.40;102000.53;5056092;28;20037;-44
2023/04/29 10:02:08;;;;;;;12.13;5.53;;;;;;;23.34;50.53;102008.94;5060378;28;20036;-45
2023/04/29 10:04:34;;;;;;;14.05;5.38;;;;;;;23.48;53.22;102014.19;5052699;28;20402;-46
2023/04/29 10:06:59;;;;;;;17.20;5.90;;;;;;;24.00;49.35;102009.59;5057987;28;20100;-48
2023/04/29 10:09:25;;;;;;;13.15;5.18;;;;;;;23.82;51.52;102009.75;5048118;28;20016;-47
2023/04/29 10:11:51;;;;;;;12.05;5.80;;;;;;;23.47;52.67;102016.13;5063203;28;20017;-50
2023/04/29 10:14:18;;;;;;;12.37;5.30;;;;;;;24.24;49.26;102013.09;5057931;28;20112;-45
2023/04/29 10:16:49;;;;;;;14.15;5.32;;;;;;;24.03;49.61;102020.09;5049606;28;20371;-48
2023/04/29 10:19:34;;;;;;;14.80;5.63;;;;;;;23.55;50.42;102023.16;5065575;28;20032;-46
2023/04/29 10:22:03;;;;;;;19.58;6.13;;;;;;;22.90;52.41;102018.53;5059528;28;20517;-47
2023/04/29 10:24:29;;;;;;;11.48;5.45;;;;;;;22.93;54.14;102023.56;5060836;28;20028;-47
2023/04/29 10:26:55;;;;;;;8.77;4.88;;;;;;;22.91;54.03;102009.25;5049571;28;20553;-45
2023/04/29 10:29:21;;;;;;;17.15;5.72;;;;;;;24.18;50.50;102019.59;5057060;28;20051;-47
2023/04/29 10:31:48;;;;;;;12.32;5.65;;;;;;;24.43;47.39;102015.66;5052253;28;20360;-47
2023/04/29 10:34:15;;;;;;;15.70;5.15;;;;;;;24.37;49.66;102017.47;5046706;28;20562;-47
2023/04/29 10:36:41;;;;;;;14.57;5.82;;;;;;;24.18;47.88;102014.09;5063547;28;20041;-45
2023/04/29 10:39:09;;;;;;;13.23;5.15;;;;;;;23.77;50.86;102015.16;5048313;28;20029;-45
2023/04/29 10:41:46;;;;;;;14.35;5.10;;;;;;;23.48;51.12;102015.03;5055852;28;20075;-45
2023/04/29 10:44:12;;;;;;;12.33;5.63;;;;;;;23.05;52.84;102009.91;5048478;28;20524;-49
2023/04/29 10:46:37;;;;;;;12.97;4.97;;;;;;;22.87;53.63;102003.38;5048049;28;20290;-46
2023/04/29 10:49:07;;;;;;;10.63;4.95;;;;;;;23.23;53.09;102012.53;5067017;28;20502;-49
2023/04/29 10:51:39;;;;;;;12.90;5.60;;;;;;;24.73;48.83;102013.50;5051170;28;20083;-47
2023/04/29 10:54:24;;;;;;;10.90;4.97;;;;;;;25.04;47.47;102015.94;5068959;28;20067;-46
2023/04/29 10:56:51;;;;;;;15.48;5.30;;;;;;;24.58;49.86;102023.41;5068747;28;20038;-48
2023/04/29 10:59:26;;;;;;;13.88;5.10;;;;;;;23.82;48.67;102015.25;5068675;28;20481;-46
2023/04/29 11:01:52;;;;;;;14.85;5.53;;;;;;;23.61;50.10;102017.53;5064771;28;20123;-43
2023/04/29 11:04:19;;;;;;;11.48;5.80;;;;;;;23.37;49.95;102018.63;5065026;28;20086;-49
2023/04/29 11:06:54;;;;;;;;;;;;;;;23.56;50.15;102020.16;5051699;28;20074;-46
2023/04/29 11:09:26;;;;;;;15.88;5.22;;;;;;;24.68;47.60;102024.41;5049845;28;20011;-46
2023/04/29 11:11:55;;;;;;;12.73;6.03;;;;;;;24.28;47.83;102019.81;5052791;28;20064;-45